Time;durP1;ratioP1;P1;durP2;ratioP2;P2;SDS_P1;SDS_P2;PMS_P1;PMS_P2;Temp;Humidity;BMP_temperature;BMP_pressure;BME280_temperature;BME280_humidity;BME280_pressure;Samples;Min_cycle;Max_cycle;Signal;HPM_P1;HPM_P2
2023/03/01 06:02:09;;;;;;;10.00;9.60;;;;;;;5.28;100.00;93182.50;5066561;27;20584;-80
2023/03/01 06:04:34;;;;;;;9.77;9.37;;;;;;;5.53;100.00;93196.66;5065427;28;20411;-79
2023/03/01 06:06:59;;;;;;;9.70;9.30;;;;;;;5.79;98.88;93206.44;5063742;28;20213;-81
2023/03/01 06:09:25;;;;;;;9.63;9.23;;;;;;;6.22;95.87;93216.22;5064838;28;20188;-76
2023/03/01 06:11:51;;;;;;;9.97;9.60;;;;;;;6.45;98.26;93213.44;5064296;28;20213;-80
2023/03/01 06:14:16;;;;;;;9.70;9.30;;;;;;;6.55;93.75;93223.97;5065221;28;20192;-80
2023/03/01 06:16:42;;;;;;;9.90;9.50;;;;;;;6.64;93.54;93230.31;5064574;28;20233;-80
2023/03/01 06:19:07;;;;;;;10.13;9.77;;;;;;;6.62;93.39;93215.97;5065195;28;20193;-80
2023/03/01 06:21:32;;;;;;;9.17;8.87;;;;;;;6.79;92.19;93230.50;5064630;28;20271;-79
2023/03/01 06:23:58;;;;;;;10.00;9.60;;;;;;;6.72;91.51;93236.88;5065221;28;20212;-81
2023/03/01 06:26:23;;;;;;;9.57;9.17;;;;;;;6.85;91.47;93234.72;5064812;28;20276;-80
2023/03/01 06:28:48;;;;;;;10.43;9.87;;;;;;;6.75;91.30;93216.44;5064450;28;20204;-82
2023/03/01 06:31:14;;;;;;;11.20;10.60;;;;;;;6.74;90.35;93211.50;5064944;28;20255;-80
2023/03/01 06:33:40;;;;;;;9.80;9.40;;;;;;;6.97;89.71;93225.03;5064557;28;20185;-80
2023/03/01 06:36:06;;;;;;;17.43;16.63;;;;;;;7.07;89.59;93232.13;5064475;28;20221;-80
2023/03/01 06:38:31;;;;;;;10.10;9.60;;;;;;;7.11;88.71;93221.06;5065450;28;20177;-79
2023/03/01 06:40:56;;;;;;;13.30;12.70;;;;;;;7.09;88.91;93238.66;5062943;28;20255;-80
2023/03/01 06:43:23;;;;;;;10.23;9.77;;;;;;;7.16;88.70;93244.44;5065202;28;20173;-81
2023/03/01 06:45:49;;;;;;;10.10;9.70;;;;;;;7.18;88.18;93231.22;5064024;28;20221;-81
2023/03/01 06:48:14;;;;;;;10.73;10.23;;;;;;;7.20;87.78;93240.38;5064523;28;20212;-81
2023/03/01 06:50:39;;;;;;;9.73;9.33;;;;;;;7.23;88.16;93244.28;5097159;28;20230;-81
2023/03/01 06:53:05;;;;;;;9.77;9.37;;;;;;;7.18;88.68;93237.22;5063801;28;20186;-82
2023/03/01 06:55:31;;;;;;;9.40;9.00;;;;;;;7.29;87.27;93223.31;5064840;28;20342;-82
2023/03/01 06:58:00;;;;;;;9.17;8.77;;;;;;;7.38;86.03;93234.84;5064730;28;20961;-80
2023/03/01 07:00:27;;;;;;;10.70;10.30;;;;;;;7.58;85.93;93235.06;5064149;28;20982;-82
2023/03/01 07:02:53;;;;;;;9.77;9.37;;;;;;;7.67;85.60;93243.97;5064179;28;20178;-81
2023/03/01 07:05:19;;;;;;;10.30;9.80;;;;;;;7.54;85.05;93222.81;5064834;28;20221;-81
2023/03/01 07:07:44;;;;;;;10.00;9.60;;;;;;;7.57;84.83;93235.31;5064234;28;20192;-81
2023/03/01 07:10:11;;;;;;;10.67;10.17;;;;;;;7.50;86.24;93238.09;5064272;28;20293;-82
2023/03/01 07:12:36;;;;;;;11.13;10.53;;;;;;;7.61;86.09;93239.00;5055656;28;20179;-80
2023/03/01 07:15:03;;;;;;;10.77;10.17;;;;;;;7.60;86.24;93220.00;5051232;28;20238;-81
2023/03/01 07:17:29;;;;;;;10.73;10.23;;;;;;;7.74;85.46;93226.38;5049602;28;20201;-81
2023/03/01 07:19:54;;;;;;;9.53;9.13;;;;;;;7.59;84.85;93215.06;5050603;28;20185;-81
2023/03/01 07:22:19;;;;;;;11.03;10.40;;;;;;;7.84;85.04;93231.66;5049401;28;20190;-81
2023/03/01 07:24:45;;;;;;;9.67;9.27;;;;;;;7.98;83.01;93232.81;5050209;28;20198;-81
2023/03/01 07:27:10;;;;;;;9.83;9.20;;;;;;;7.84;83.44;93223.88;5049607;28;20230;-81
2023/03/01 07:29:39;;;;;;;10.23;9.73;;;;;;;7.98;84.49;93230.22;5051297;28;20186;-81
2023/03/01 07:32:05;;;;;;;9.40;8.97;;;;;;;7.92;84.79;93233.81;5051161;28;20237;-82
2023/03/01 07:34:31;;;;;;;10.73;10.13;;;;;;;8.23;83.95;93236.72;5051326;28;20976;-81
2023/03/01 07:36:57;;;;;;;10.60;10.20;;;;;;;8.22;83.08;93222.88;5049233;28;20230;-80
2023/03/01 07:39:25;;;;;;;10.50;10.00;;;;;;;8.12;83.66;93225.44;5051138;28;20267;-80
2023/03/01 07:41:51;;;;;;;10.00;9.50;;;;;;;8.22;83.79;93235.88;5050295;28;20232;-81
2023/03/01 07:44:17;;;;;;;9.77;9.27;;;;;;;8.27;82.81;93212.56;5051136;28;20251;-81
2023/03/01 07:46:42;;;;;;;10.03;9.53;;;;;;;8.24;83.34;93240.88;5049354;28;20233;-81
2023/03/01 07:49:08;;;;;;;11.13;10.43;;;;;;;8.02;84.09;93215.72;5050651;28;20206;-82
2023/03/01 07:51:33;;;;;;;11.77;10.83;;;;;;;7.96;84.70;93214.13;5049921;28;20217;-81
2023/03/01 07:53:59;;;;;;;10.80;10.20;;;;;;;7.77;84.38;93212.91;5050829;28;20190;-80
2023/03/01 07:56:24;;;;;;;9.83;9.43;;;;;;;7.68;84.73;93196.19;5050380;28;20218;-81
2023/03/01 07:58:50;;;;;;;9.93;9.40;;;;;;;7.91;85.17;93208.06;5050752;28;20224;-81
2023/03/01 08:01:18;;;;;;;10.63;10.13;;;;;;;8.12;83.45;93220.22;5048766;28;20264;-82
2023/03/01 08:03:44;;;;;;;9.70;9.17;;;;;;;7.97;83.60;93194.06;5050797;28;20190;-80
2023/03/01 08:06:10;;;;;;;10.20;9.80;;;;;;;7.88;83.96;93211.16;5049908;28;20241;-81
2023/03/01 08:08:36;;;;;;;10.10;9.67;;;;;;;7.82;83.98;93201.75;5049452;28;20198;-81
2023/03/01 08:11:04;;;;;;;10.73;10.33;;;;;;;7.87;84.03;93212.22;5049835;28;20226;-82
2023/03/01 08:13:30;;;;;;;10.50;9.90;;;;;;;7.74;85.50;93204.81;5050291;28;20184;-81
2023/03/01 08:16:02;;;;;;;10.97;10.47;;;;;;;7.81;85.53;93206.16;5049503;28;20247;-82
2023/03/01 08:18:27;;;;;;;9.87;9.43;;;;;;;7.72;85.38;93217.28;5048727;28;20246;-81
2023/03/01 08:20:52;;;;;;;11.17;10.47;;;;;;;7.61;85.27;93205.97;5049551;28;20265;-81
2023/03/01 08:23:18;;;;;;;11.57;10.97;;;;;;;7.50;86.53;93212.09;5049460;28;20452;-82
2023/03/01 08:25:43;;;;;;;11.80;11.30;;;;;;;7.59;86.51;93210.66;5049491;28;20286;-81
2023/03/01 08:28:08;;;;;;;9.57;9.03;;;;;;;7.88;85.59;93198.16;5050034;28;20186;-81
2023/03/01 08:30:34;;;;;;;11.13;10.20;;;;;;;8.16;83.30;93213.47;5049811;28;20230;-82
2023/03/01 08:32:59;;;;;;;9.93;9.53;;;;;;;7.98;84.04;93217.22;5050092;28;20245;-82
2023/03/01 08:35:25;;;;;;;10.87;10.27;;;;;;;8.07;84.01;93223.56;5049608;28;20221;-81
2023/03/01 08:37:50;;;;;;;10.23;9.73;;;;;;;8.06;83.81;93219.38;5049210;28;20239;-81
2023/03/01 08:40:16;;;;;;;11.20;10.50;;;;;;;8.35;83.55;93211.31;5048199;28;20229;-81
2023/03/01 08:42:42;;;;;;;10.60;10.10;;;;;;;8.57;81.89;93211.97;5049944;28;20267;-81
2023/03/01 08:45:09;;;;;;;11.17;10.67;;;;;;;8.68;81.54;93217.00;5049007;28;20278;-82
2023/03/01 08:47:35;;;;;;;9.97;9.57;;;;;;;8.64;80.74;93215.91;5048151;28;20208;-81
2023/03/01 08:50:01;;;;;;;10.73;10.13;;;;;;;8.19;82.01;93187.78;5048920;28;20178;-81
2023/03/01 08:52:26;;;;;;;10.50;10.00;;;;;;;8.49;82.00;93207.25;5050033;28;20174;-81
2023/03/01 08:54:52;;;;;;;11.73;11.13;;;;;;;8.70;80.38;93221.97;5048436;28;20186;-81
2023/03/01 08:57:18;;;;;;;10.90;10.40;;;;;;;8.82;80.56;93215.53;5048464;28;20246;-82
2023/03/01 08:59:43;;;;;;;10.97;10.47;;;;;;;8.58;80.16;93211.72;5049059;28;20776;-81
2023/03/01 09:02:15;;;;;;;10.97;10.37;;;;;;;9.12;79.22;93218.25;5049227;28;20854;-80
2023/03/01 09:04:41;;;;;;;10.97;10.33;;;;;;;8.95;78.98;93196.06;5047702;28;20186;-81
2023/03/01 09:07:08;;;;;;;10.30;9.83;;;;;;;8.64;79.11;93209.94;5048739;28;20256;-81
2023/03/01 09:09:34;;;;;;;10.63;10.13;;;;;;;8.74;80.15;93210.78;5049163;28;20174;-81
2023/03/01 09:12:00;;;;;;;11.23;10.73;;;;;;;8.62;80.27;93212.81;5048615;28;20224;-81
2023/03/01 09:14:25;;;;;;;10.60;10.10;;;;;;;8.66;80.60;93223.47;5048845;28;20174;-81
2023/03/01 09:16:50;;;;;;;10.17;9.67;;;;;;;8.58;80.87;93216.13;5048283;28;20272;-82
2023/03/01 09:19:16;;;;;;;10.90;10.30;;;;;;;8.38;81.18;93200.41;5047662;28;20186;-82
2023/03/01 09:21:52;;;;;;;11.20;10.70;;;;;;;8.52;81.72;93207.53;5048304;28;20233;-85
2023/03/01 09:24:22;;;;;;;10.70;10.00;;;;;;;8.40;81.31;93195.75;5048752;28;20212;-82
2023/03/01 09:26:47;;;;;;;11.63;10.93;;;;;;;8.39;81.00;93204.59;5047593;28;20970;-81
2023/03/01 09:29:14;;;;;;;12.87;12.07;;;;;;;8.75;80.79;93211.56;5048580;28;20190;-81
2023/03/01 09:31:40;;;;;;;11.47;10.90;;;;;;;8.92;80.06;93207.75;5048657;28;20226;-81
2023/03/01 09:34:06;;;;;;;11.07;10.47;;;;;;;8.85;79.76;93222.03;5048777;28;20186;-82
2023/03/01 09:36:32;;;;;;;13.07;12.27;;;;;;;8.82;80.12;93210.31;5047384;28;20278;-82
2023/03/01 09:38:59;;;;;;;11.53;10.83;;;;;;;8.76;80.21;93195.72;5048437;28;20178;-80
2023/03/01 09:41:42;;;;;;;11.10;10.50;;;;;;;8.96;79.54;93208.03;5048188;28;20268;-82
2023/03/01 09:44:35;;;;;;;11.77;11.07;;;;;;;9.09;79.17;93197.16;5048493;28;20185;-80
2023/03/01 09:47:02;;;;;;;11.47;10.77;;;;;;;9.15;78.76;93198.75;5047479;28;20218;-81
2023/03/01 09:49:31;;;;;;;11.50;10.80;;;;;;;9.26;78.25;93197.75;5047546;28;20194;-83
2023/03/01 09:52:12;;;;;;;13.50;12.20;;;;;;;9.38;78.09;93191.28;5048765;28;20230;-82
2023/03/01 09:54:37;;;;;;;13.40;11.87;;;;;;;9.63;76.61;93198.34;5048152;28;20212;-81
2023/03/01 09:57:17;;;;;;;12.60;11.40;;;;;;;9.63;76.79;93198.34;5048371;28;20801;-82
2023/03/01 09:59:47;;;;;;;12.97;11.60;;;;;;;9.16;77.17;93189.88;5046504;28;20186;-80
2023/03/01 10:02:34;;;;;;;13.30;12.03;;;;;;;9.02;78.44;93192.19;5046483;28;20213;-81
2023/03/01 10:05:17;;;;;;;13.33;11.93;;;;;;;8.79;79.75;93191.81;5047956;28;20190;-82
2023/03/01 10:08:04;;;;;;;12.27;11.50;;;;;;;8.90;79.07;93183.00;5047670;28;20632;-83
2023/03/01 10:10:37;;;;;;;12.40;11.33;;;;;;;8.89;79.20;93181.44;5047701;28;20221;-82
2023/03/01 10:13:15;;;;;;;13.63;12.23;;;;;;;8.83;79.65;93180.63;5047241;28;20210;-81
2023/03/01 10:15:49;;;;;;;14.60;12.20;;;;;;;8.85;80.14;93177.78;5047728;28;20244;-82
2023/03/01 10:18:36;;;;;;;11.73;10.87;;;;;;;8.79;79.77;93155.34;5047375;28;20182;-81
2023/03/01 10:21:12;;;;;;;12.03;11.07;;;;;;;8.40;81.13;93177.53;5047715;28;20743;-82
2023/03/01 10:23:38;;;;;;;11.37;10.77;;;;;;;8.07;82.49;93142.97;5048278;28;20185;-82
2023/03/01 10:26:39;;;;;;;10.83;10.10;;;;;;;8.32;83.14;93176.19;5047937;28;20870;-80
2023/03/01 10:29:08;;;;;;;10.90;10.27;;;;;;;8.45;83.16;93169.75;5047964;28;20393;-83
2023/03/01 10:31:46;;;;;;;11.50;10.80;;;;;;;8.72;81.99;93163.41;5047435;28;20317;-81
2023/03/01 10:34:22;;;;;;;12.40;11.63;;;;;;;8.77;81.51;93170.44;5048289;28;20178;-81
2023/03/01 10:36:52;;;;;;;12.37;11.57;;;;;;;8.79;81.77;93160.56;5047494;28;20214;-82
2023/03/01 10:39:20;;;;;;;10.70;10.10;;;;;;;8.63;81.88;93153.72;5046850;28;20204;-81
2023/03/01 10:42:01;;;;;;;11.47;10.67;;;;;;;8.50;82.58;93149.75;5047527;28;20237;-82
2023/03/01 10:44:42;;;;;;;13.10;12.17;;;;;;;8.57;81.91;93147.72;5047746;28;20204;-82
2023/03/01 10:47:24;;;;;;;12.53;11.53;;;;;;;8.58;81.18;93143.28;5046137;28;20222;-81
2023/03/01 10:49:56;;;;;;;14.60;13.07;;;;;;;8.67;82.52;93152.19;5051314;28;21290;-82
2023/03/01 10:52:27;;;;;;;13.83;12.73;;;;;;;8.77;81.64;93147.00;5051370;28;20213;-82
2023/03/01 10:54:59;;;;;;;13.80;12.53;;;;;;;8.85;80.88;93144.72;5083512;28;20189;-83
2023/03/01 10:57:37;;;;;;;12.23;11.43;;;;;;;8.80;80.40;93136.88;5051902;28;20194;-81
2023/03/01 11:00:20;;;;;;;11.90;11.17;;;;;;;9.10;80.20;93146.63;5051001;28;20228;-81
2023/03/01 11:03:12;;;;;;;11.97;10.97;;;;;;;9.11;79.53;93151.56;5053237;28;20213;-84
2023/03/01 11:05:55;;;;;;;11.33;10.73;;;;;;;9.00;80.36;93157.00;5050174;28;20252;-82
2023/03/01 11:08:50;;;;;;;10.80;10.20;;;;;;;8.85;80.88;93147.31;5050982;28;20190;-80
2023/03/01 11:11:23;;;;;;;10.87;10.17;;;;;;;8.60;82.03;93154.22;5037615;28;20261;-86
2023/03/01 11:13:55;;;;;;;11.83;11.13;;;;;;;8.53;82.11;93145.88;5050325;28;20190;-82
2023/03/01 11:16:31;;;;;;;11.47;10.80;;;;;;;8.66;81.48;93155.81;5050989;28;20229;-78
2023/03/01 11:19:19;;;;;;;12.00;11.20;;;;;;;8.51;82.46;93153.13;5049450;28;20182;-79
2023/03/01 11:22:07;;;;;;;11.33;10.57;;;;;;;8.63;82.09;93156.31;5048171;28;20234;-76
2023/03/01 11:24:42;;;;;;;11.73;10.77;;;;;;;8.44;82.28;93163.75;5050848;28;20205;-73
2023/03/01 11:27:33;;;;;;;11.00;10.30;;;;;;;8.24;83.84;93150.63;5047531;28;20887;-73
2023/03/01 11:30:07;;;;;;;11.13;10.30;;;;;;;8.55;83.82;93164.59;5049125;28;20190;-80
2023/03/01 11:32:42;;;;;;;13.00;11.77;;;;;;;8.61;82.50;93153.19;5049670;28;20193;-75
2023/03/01 11:35:08;;;;;;;12.37;11.33;;;;;;;8.65;81.93;93159.47;5050301;28;20219;-76
2023/03/01 11:38:11;;;;;;;12.63;11.87;;;;;;;8.72;81.78;93146.97;5050697;28;20196;-76
2023/03/01 11:40:52;;;;;;;12.67;11.77;;;;;;;8.94;80.91;93150.22;5018724;28;20264;-76
2023/03/01 11:43:23;;;;;;;12.67;11.77;;;;;;;8.82;81.94;93142.63;5050536;28;20234;-76
2023/03/01 11:46:08;;;;;;;12.20;11.50;;;;;;;9.10;80.39;93151.84;5049265;28;20326;-76
2023/03/01 11:48:46;;;;;;;11.83;11.03;;;;;;;8.94;81.48;93134.59;5081884;28;20197;-76
2023/03/01 11:51:42;;;;;;;11.43;10.83;;;;;;;8.73;81.81;93127.75;5049061;28;20237;-76
2023/03/01 11:54:46;;;;;;;15.90;13.60;;;;;;;8.30;82.13;93104.63;5047072;28;20209;-76
2023/03/01 11:57:41;;;;;;;15.10;11.80;;;;;;;8.45;83.17;93121.09;5048530;28;20237;-76
2023/03/01 12:00:14;;;;;;;11.63;10.63;;;;;;;8.65;81.70;93128.22;5046813;28;20298;-77
2023/03/01 12:03:05;;;;;;;12.53;11.63;;;;;;;9.23;80.91;93127.91;5049043;28;20198;-76
2023/03/01 12:06:03;;;;;;;12.20;11.37;;;;;;;9.50;78.93;93126.66;5048008;28;20245;-76
2023/03/01 12:08:40;;;;;;;11.00;10.40;;;;;;;9.79;77.35;93119.88;5029066;28;20908;-76
2023/03/01 12:11:27;;;;;;;12.10;11.40;;;;;;;10.01;76.42;93132.66;5049529;28;20298;-76
2023/03/01 12:14:24;;;;;;;12.43;11.47;;;;;;;10.17;75.77;93123.03;5049920;28;20194;-76
2023/03/01 12:17:01;;;;;;;13.03;11.83;;;;;;;10.37;74.17;93120.38;5048785;28;20226;-76
2023/03/01 12:19:53;;;;;;;10.87;10.27;;;;;;;10.13;74.64;93120.19;5049050;28;20205;-76
2023/03/01 12:22:24;;;;;;;11.97;11.27;;;;;;;10.09;74.79;93121.75;5048663;28;20209;-76
2023/03/01 12:25:21;;;;;;;11.77;11.17;;;;;;;9.62;75.59;93115.97;5048771;28;20192;-76
2023/03/01 12:27:47;;;;;;;12.30;11.63;;;;;;;9.73;76.78;93113.13;5049239;28;20217;-76
2023/03/01 12:30:21;;;;;;;11.57;10.77;;;;;;;9.73;77.20;93107.91;5049254;28;20237;-77
2023/03/01 12:33:00;;;;;;;12.10;11.37;;;;;;;9.94;76.45;93116.50;5049413;28;20241;-77
2023/03/01 12:35:50;;;;;;;11.97;11.27;;;;;;;9.85;76.66;93118.09;5048629;28;21002;-77
2023/03/01 12:38:33;;;;;;;13.17;12.27;;;;;;;9.88;77.16;93106.34;5081018;28;20211;-76
2023/03/01 12:41:27;;;;;;;12.77;11.87;;;;;;;9.94;76.14;93093.03;5047484;28;20246;-76
2023/03/01 12:44:16;;;;;;;10.63;10.13;;;;;;;9.94;75.57;93095.66;5082149;28;20185;-77
2023/03/01 12:47:00;;;;;;;12.73;12.03;;;;;;;10.03;75.88;93104.50;5046769;28;20281;-75
2023/03/01 12:49:41;;;;;;;10.57;9.97;;;;;;;9.89;76.95;93108.69;5048771;28;20273;-76
2023/03/01 12:52:14;;;;;;;11.90;11.30;;;;;;;10.05;75.19;93107.63;5048251;28;20235;-77
2023/03/01 12:54:41;;;;;;;11.77;11.07;;;;;;;9.98;75.49;93095.91;5047168;28;20183;-72
2023/03/01 12:57:23;;;;;;;11.80;11.10;;;;;;;10.10;75.50;93094.59;5047712;28;20234;-75
2023/03/01 13:00:07;;;;;;;10.37;9.77;;;;;;;9.87;75.43;93100.34;5047869;28;20205;-76
2023/03/01 13:02:41;;;;;;;11.27;10.70;;;;;;;9.54;77.18;93095.66;5043570;28;20229;-75
2023/03/01 13:05:39;;;;;;;11.97;11.37;;;;;;;9.77;76.40;93101.13;5045964;28;20234;-75
2023/03/01 13:08:32;;;;;;;12.23;11.43;;;;;;;9.78;77.54;93091.47;5042223;28;20185;-76
2023/03/01 13:11:03;;;;;;;10.60;10.00;;;;;;;9.66;76.58;93080.53;5045554;28;20230;-76
2023/03/01 13:13:29;;;;;;;11.80;11.20;;;;;;;9.77;77.03;93102.97;5048696;28;20182;-76
2023/03/01 13:15:56;;;;;;;11.70;10.97;;;;;;;9.75;77.60;93102.44;5046964;28;20233;-75
2023/03/01 13:18:23;;;;;;;11.77;11.17;;;;;;;9.96;77.24;93103.97;5048017;28;20195;-75
2023/03/01 13:20:52;;;;;;;12.97;12.17;;;;;;;10.05;76.68;93099.81;5047932;28;20244;-75
2023/03/01 13:23:24;;;;;;;11.27;10.67;;;;;;;9.75;77.25;93099.81;5048240;28;20205;-75
2023/03/01 13:26:15;;;;;;;12.30;11.40;;;;;;;9.71;77.95;93104.00;5046536;28;20285;-76
2023/03/01 13:28:43;;;;;;;12.00;11.30;;;;;;;9.61;78.46;93098.78;5047508;28;20221;-75
2023/03/01 13:31:15;;;;;;;10.90;10.30;;;;;;;9.45;78.98;93097.97;5046574;28;20245;-74
2023/03/01 13:33:47;;;;;;;11.63;11.00;;;;;;;9.40;79.48;93092.00;5048328;28;20194;-75
2023/03/01 13:36:28;;;;;;;11.90;11.20;;;;;;;8.76;81.21;93093.41;5046605;28;20233;-76
2023/03/01 13:38:54;;;;;;;11.60;10.83;;;;;;;8.65;82.30;93091.78;5048603;28;20186;-76
2023/03/01 13:41:41;;;;;;;11.57;10.87;;;;;;;8.63;83.21;93086.03;5046808;28;20249;-77
2023/03/01 13:44:29;;;;;;;13.40;12.30;;;;;;;8.33;83.75;93058.09;5048027;28;20191;-75
2023/03/01 13:47:01;;;;;;;13.03;12.10;;;;;;;8.60;84.02;93089.94;5045929;28;20218;-75
2023/03/01 13:49:41;;;;;;;13.57;12.57;;;;;;;8.77;84.22;93085.34;5078938;28;20213;-74
2023/03/01 13:52:21;;;;;;;12.97;11.83;;;;;;;8.64;83.92;93085.78;5047116;28;20225;-75
2023/03/01 13:54:46;;;;;;;13.20;12.17;;;;;;;8.63;84.19;93086.03;5046410;28;20170;-75
2023/03/01 13:57:22;;;;;;;14.57;13.17;;;;;;;8.52;84.48;93076.63;5046038;28;20243;-73
2023/03/01 13:59:47;;;;;;;15.07;13.63;;;;;;;8.55;85.79;93078.72;5047106;28;20189;-73
2023/03/01 14:02:13;;;;;;;13.27;12.27;;;;;;;8.68;84.78;93073.06;5047017;28;20218;-73
2023/03/01 14:04:40;;;;;;;13.20;12.13;;;;;;;8.47;85.89;93076.63;5047874;28;20179;-74
2023/03/01 14:07:25;;;;;;;13.57;12.57;;;;;;;8.72;85.23;93082.69;5045652;28;20221;-74
2023/03/01 14:09:57;;;;;;;12.10;11.40;;;;;;;8.63;85.16;93080.84;5046200;28;20221;-73
2023/03/01 14:12:47;;;;;;;13.00;12.20;;;;;;;8.53;85.07;93083.41;5046592;28;20213;-73
2023/03/01 14:15:22;;;;;;;12.33;11.53;;;;;;;8.17;87.57;93085.03;5046915;28;20253;-73
2023/03/01 14:18:04;;;;;;;14.33;13.17;;;;;;;8.18;87.59;93087.38;5045323;28;20177;-74
2023/03/01 14:20:37;;;;;;;12.50;11.57;;;;;;;8.20;87.61;93079.34;5043467;28;20238;-74
2023/03/01 14:23:12;;;;;;;12.57;11.63;;;;;;;8.20;87.94;93080.09;5048418;28;20289;-75
2023/03/01 14:25:46;;;;;;;13.20;12.23;;;;;;;8.45;87.37;93076.09;5050326;28;20304;-74
2023/03/01 14:28:19;;;;;;;12.30;11.50;;;;;;;8.54;86.18;93074.56;5050599;28;20218;-75
2023/03/01 14:30:48;;;;;;;11.73;11.13;;;;;;;8.33;86.39;93058.09;5050047;28;20229;-75
2023/03/01 14:33:53;;;;;;;11.03;10.33;;;;;;;8.48;86.58;93070.38;5048914;28;20290;-75
2023/03/01 14:36:27;;;;;;;11.47;10.70;;;;;;;8.45;86.21;93070.88;5042323;28;20233;-77
2023/03/01 14:38:52;;;;;;;11.63;11.07;;;;;;;8.54;85.83;93071.97;5049432;28;20213;-75
2023/03/01 14:41:23;;;;;;;11.57;10.87;;;;;;;8.32;86.65;93073.94;5047939;28;20229;-75
2023/03/01 14:43:59;;;;;;;12.13;11.33;;;;;;;8.08;87.39;93061.31;5051064;28;20201;-76
2023/03/01 14:46:38;;;;;;;11.00;10.30;;;;;;;8.02;87.85;93059.72;5048914;28;20229;-74
2023/03/01 14:49:06;;;;;;;12.57;11.87;;;;;;;7.94;88.48;93064.59;5050212;28;20186;-75
2023/03/01 14:51:41;;;;;;;12.73;11.97;;;;;;;7.95;88.96;93069.53;5050056;28;20285;-74
2023/03/01 14:54:24;;;;;;;12.47;11.57;;;;;;;7.86;90.02;93068.44;5050272;28;20196;-74
2023/03/01 14:56:50;;;;;;;11.40;10.80;;;;;;;7.79;90.03;93064.50;5049460;28;20297;-74
2023/03/01 14:59:21;;;;;;;11.40;10.67;;;;;;;7.72;89.45;93062.13;5050197;28;20190;-75
2023/03/01 15:01:47;;;;;;;13.07;12.07;;;;;;;7.46;90.46;93042.19;5047849;28;20236;-73
2023/03/01 15:04:13;;;;;;;12.23;11.33;;;;;;;7.53;91.42;93068.72;5049479;28;20261;-74
2023/03/01 15:06:39;;;;;;;11.53;10.87;;;;;;;7.47;91.30;93038.56;5049628;28;20234;-73
2023/03/01 15:09:05;;;;;;;13.40;12.50;;;;;;;7.61;90.94;93028.53;5049639;28;20991;-74
2023/03/01 15:11:33;;;;;;;11.07;10.37;;;;;;;7.55;91.53;93050.28;5049345;28;20240;-74
2023/03/01 15:13:59;;;;;;;12.47;11.63;;;;;;;7.47;91.84;93032.59;5049634;28;20202;-72
2023/03/01 15:16:26;;;;;;;13.77;12.80;;;;;;;7.44;91.88;93046.09;5047089;28;20241;-73
2023/03/01 15:18:58;;;;;;;13.80;12.70;;;;;;;7.38;92.54;93050.44;5063876;28;20194;-75
2023/03/01 15:21:29;;;;;;;13.97;12.83;;;;;;;7.17;94.34;93032.34;5049376;28;20260;-74
2023/03/01 15:24:21;;;;;;;13.67;12.60;;;;;;;7.17;94.04;93042.72;5048723;28;20191;-73
2023/03/01 15:27:01;;;;;;;13.70;12.43;;;;;;;7.11;94.60;93052.31;5048308;28;20268;-73
2023/03/01 15:29:33;;;;;;;13.50;12.43;;;;;;;7.08;94.60;93036.44;5050078;28;21177;-73
2023/03/01 15:32:06;;;;;;;13.23;12.13;;;;;;;6.98;94.93;93039.72;5048927;28;20237;-73
2023/03/01 15:34:33;;;;;;;14.87;13.47;;;;;;;6.86;95.54;93031.31;5049746;28;20205;-72
2023/03/01 15:37:01;;;;;;;13.63;12.63;;;;;;;6.86;95.82;93041.69;5048405;28;20240;-73
2023/03/01 15:39:30;;;;;;;12.97;12.07;;;;;;;6.70;96.81;93039.94;5046672;28;20194;-74
2023/03/01 15:41:56;;;;;;;13.17;12.07;;;;;;;6.76;96.82;93035.59;5081363;28;20256;-74
2023/03/01 15:44:33;;;;;;;14.07;12.87;;;;;;;6.51;96.89;93023.94;5049741;28;20911;-76
2023/03/01 15:46:59;;;;;;;12.80;11.83;;;;;;;6.73;96.93;93029.09;5049269;28;20241;-77
2023/03/01 15:49:35;;;;;;;12.73;11.73;;;;;;;6.62;97.57;93044.78;5049409;28;20277;-77
2023/03/01 15:52:01;;;;;;;14.33;13.23;;;;;;;6.65;97.67;93039.91;5045833;28;20280;-75
2023/03/01 15:54:27;;;;;;;13.97;12.97;;;;;;;6.55;98.41;93035.38;5049137;28;20197;-76
2023/03/01 15:56:53;;;;;;;13.27;12.17;;;;;;;6.37;98.93;93008.97;5048411;28;20210;-81
2023/03/01 15:59:19;;;;;;;12.67;11.77;;;;;;;6.33;99.03;93010.50;5047851;28;20203;-79
2023/03/01 16:01:45;;;;;;;13.73;12.63;;;;;;;6.45;99.28;93031.91;5045791;28;20236;-80
2023/03/01 16:04:20;;;;;;;11.93;11.07;;;;;;;6.51;98.81;93028.31;5047991;28;20189;-78
2023/03/01 16:06:55;;;;;;;13.47;12.37;;;;;;;6.24;99.91;93014.56;5047100;28;20223;-78
2023/03/01 16:09:25;;;;;;;14.80;13.60;;;;;;;6.39;99.82;93022.50;5031279;28;20182;-79
2023/03/01 16:11:51;;;;;;;13.23;12.23;;;;;;;6.18;100.00;93018.09;5047877;28;20245;-79
2023/03/01 16:14:18;;;;;;;12.67;11.87;;;;;;;6.33;100.00;93031.25;5048464;28;20249;-78
2023/03/01 16:16:44;;;;;;;12.57;11.67;;;;;;;6.24;99.77;93027.53;5049313;28;20225;-76
2023/03/01 16:19:10;;;;;;;11.90;11.17;;;;;;;6.14;100.00;93023.00;5048104;28;20251;-79
2023/03/01 16:21:36;;;;;;;12.57;11.80;;;;;;;6.20;100.00;93016.84;5040218;28;20238;-78
2023/03/01 16:24:01;;;;;;;13.23;12.27;;;;;;;6.08;98.18;92992.88;5047777;28;20413;-78
2023/03/01 16:26:27;;;;;;;14.13;12.70;;;;;;;6.18;97.85;93005.91;5037272;28;20299;-78
2023/03/01 16:28:56;;;;;;;13.73;12.40;;;;;;;6.11;98.29;92997.56;5048119;28;20198;-77
2023/03/01 16:31:22;;;;;;;20.10;15.40;;;;;;;6.22;98.82;93019.19;5047010;28;21100;-78
2023/03/01 16:33:49;;;;;;;16.10;13.87;;;;;;;5.99;99.80;92998.72;5051816;28;20198;-76
2023/03/01 16:36:18;;;;;;;14.73;13.23;;;;;;;6.00;100.00;93002.84;5048580;28;20241;-76
2023/03/01 16:38:43;;;;;;;13.57;12.37;;;;;;;6.02;99.46;92998.22;5047912;28;20250;-72
2023/03/01 16:43:29;;;;;;;13.63;12.47;;;;;;;6.29;100.00;92991.25;5070165;27;1380460;-78
2023/03/01 16:45:54;;;;;;;13.83;12.50;;;;;;;6.10;99.60;92975.25;5085415;28;20244;-79
2023/03/01 19:25:34;;;;;;;16.87;15.23;;;;;;;4.27;100.00;93035.81;5108876;27;20602;-76
2023/03/01 19:28:00;;;;;;;17.97;16.13;;;;;;;4.46;100.00;93044.97;5085103;28;20193;-75
2023/03/01 19:30:26;;;;;;;15.73;14.30;;;;;;;4.72;100.00;93059.91;5079889;28;20220;-76
2023/03/01 19:32:52;;;;;;;14.70;13.40;;;;;;;4.89;100.00;93065.91;5085575;28;20204;-74
2023/03/01 19:35:17;;;;;;;15.10;13.50;;;;;;;5.00;100.00;93071.25;5082435;28;20566;-75
2023/03/01 19:37:43;;;;;;;65.43;32.40;;;;;;;5.04;100.00;93056.84;5082200;28;20193;-81
2023/03/01 19:40:09;;;;;;;28.47;19.03;;;;;;;5.17;100.00;93072.06;5084062;28;20299;-78
2023/03/01 19:42:34;;;;;;;19.70;15.47;;;;;;;5.27;100.00;93077.41;5084777;28;20185;-82
2023/03/01 19:45:00;;;;;;;18.37;16.47;;;;;;;5.30;100.00;93088.06;5084388;28;20212;-79
2023/03/01 19:47:25;;;;;;;18.13;16.33;;;;;;;5.14;100.00;93095.84;5084526;28;20201;-74
2023/03/01 19:49:50;;;;;;;17.80;15.67;;;;;;;5.19;100.00;93096.69;5084130;28;20200;-75
2023/03/01 19:52:16;;;;;;;18.37;16.40;;;;;;;5.19;100.00;93098.47;5086340;28;20201;-75
2023/03/01 19:54:41;;;;;;;18.77;16.80;;;;;;;5.32;100.00;93098.97;5085714;28;20201;-75
2023/03/01 19:57:06;;;;;;;18.33;16.43;;;;;;;5.34;100.00;93088.41;5084889;28;20213;-76
2023/03/01 19:59:32;;;;;;;20.67;17.67;;;;;;;5.34;100.00;93083.22;5084768;28;20192;-75
2023/03/01 20:01:57;;;;;;;18.83;15.53;;;;;;;5.41;100.00;93101.97;5081848;28;20232;-76
2023/03/01 20:04:23;;;;;;;17.87;15.57;;;;;;;5.47;100.00;93095.84;5084038;28;20228;-72
2023/03/01 20:06:48;;;;;;;21.60;15.83;;;;;;;5.54;100.00;93099.84;5083336;28;20280;-72
2023/03/01 20:09:14;;;;;;;17.47;15.80;;;;;;;5.65;100.00;93106.75;5082667;28;20224;-74
2023/03/01 20:11:43;;;;;;;13.20;12.03;;;;;;;5.70;100.00;93113.78;5116401;28;20221;-74
2023/03/01 20:14:11;;;;;;;14.07;12.90;;;;;;;5.75;100.00;93111.28;5085815;28;20189;-76
2023/03/01 20:16:39;;;;;;;13.47;12.37;;;;;;;5.84;100.00;93099.53;5084345;28;20231;-76
2023/03/01 20:19:05;;;;;;;14.67;13.37;;;;;;;5.99;98.08;93115.31;5083247;28;20188;-75
2023/03/01 20:21:32;;;;;;;13.97;12.97;;;;;;;5.85;98.67;93104.47;5083584;28;20265;-76
2023/03/01 20:23:58;;;;;;;13.40;12.30;;;;;;;5.84;98.89;93120.25;5083889;28;20232;-75
2023/03/01 20:26:25;;;;;;;15.10;13.90;;;;;;;5.87;98.71;93106.81;5084270;28;20225;-74
2023/03/01 20:28:53;;;;;;;15.43;13.93;;;;;;;5.94;98.85;93110.06;5082887;28;20195;-74